Time,TemperatureF,DewpointF,PressureIn,WindDirection,WindDirectionDegrees,WindSpeedMPH,WindSpeedGustMPH,Humidity,HourlyPrecipIn,Conditions,Clouds,dailyrainin,SolarRadiationWatts/m^2,SoftwareType,DateUTC
2013-05-30 00:13:00,71.0,63.0,-100.00,SSE,149,2.0,4.0,76,0.00,,,0.00,0.000000,,2013-05-30 04:13:00,
2013-05-30 00:23:00,71.0,63.0,-100.00,SSE,149,2.0,4.0,76,0.00,,,0.00,0.000000,,2013-05-30 04:23:00,
2013-05-30 00:33:00,71.0,63.0,-100.00,SSE,149,2.0,4.0,76,0.00,,,0.00,0.000000,,2013-05-30 04:33:00,
2013-05-30 00:42:00,71.0,63.0,-100.00,SSE,149,2.0,4.0,76,0.00,,,0.00,0.000000,,2013-05-30 04:42:00,
2013-05-30 01:12:00,70.0,63.0,-100.00,SSE,159,0.0,3.0,79,0.00,,,0.00,0.000000,,2013-05-30 05:12:00,
2013-05-30 01:22:00,70.0,63.0,-100.00,SSE,159,0.0,3.0,79,0.00,,,0.00,0.000000,,2013-05-30 05:22:00,
2013-05-30 01:32:00,70.0,63.0,-100.00,SSE,159,0.0,3.0,79,0.00,,,0.00,0.000000,,2013-05-30 05:32:00,
2013-05-30 01:42:00,70.0,63.0,-100.00,SSE,159,0.0,3.0,79,0.00,,,0.00,0.000000,,2013-05-30 05:42:00,
2013-05-30 02:12:00,66.0,63.0,-100.00,East,83,0.0,0.0,91,0.00,,,0.00,0.000000,,2013-05-30 06:12:00,
2013-05-30 02:22:00,66.0,63.0,-100.00,East,83,0.0,0.0,91,0.00,,,0.00,0.000000,,2013-05-30 06:22:00,
2013-05-30 02:32:00,66.0,63.0,-100.00,East,83,0.0,0.0,91,0.00,,,0.00,0.000000,,2013-05-30 06:32:00,
2013-05-30 02:42:00,66.0,63.0,-100.00,East,83,0.0,0.0,91,0.00,,,0.00,0.000000,,2013-05-30 06:42:00,
2013-05-30 03:12:00,66.0,65.0,-100.00,SSE,151,0.0,3.0,95,0.00,,,0.00,0.000000,,2013-05-30 07:12:00,
2013-05-30 03:22:00,66.0,65.0,-100.00,SSE,151,0.0,3.0,95,0.00,,,0.00,0.000000,,2013-05-30 07:22:00,
2013-05-30 03:32:00,66.0,65.0,-100.00,SSE,151,0.0,3.0,95,0.00,,,0.00,0.000000,,2013-05-30 07:32:00,
2013-05-30 03:42:00,66.0,65.0,-100.00,SSE,151,0.0,3.0,95,0.00,,,0.00,0.000000,,2013-05-30 07:42:00,
2013-05-30 04:11:00,70.0,62.0,-100.00,South,173,4.0,6.0,77,0.00,,,0.00,0.000000,,2013-05-30 08:11:00,
2013-05-30 04:22:00,70.0,62.0,-100.00,South,173,4.0,6.0,77,0.00,,,0.00,0.000000,,2013-05-30 08:22:00,
2013-05-30 04:32:00,70.0,62.0,-100.00,South,173,4.0,6.0,77,0.00,,,0.00,0.000000,,2013-05-30 08:32:00,
2013-05-30 04:42:00,70.0,62.0,-100.00,South,173,4.0,6.0,77,0.00,,,0.00,0.000000,,2013-05-30 08:42:00,
2013-05-30 05:11:00,70.0,62.0,-100.00,South,179,5.0,9.0,75,0.00,,,0.00,0.000000,,2013-05-30 09:11:00,
2013-05-30 05:22:00,70.0,62.0,-100.00,South,179,5.0,9.0,75,0.00,,,0.00,0.000000,,2013-05-30 09:22:00,
2013-05-30 05:33:00,70.0,62.0,-100.00,South,179,5.0,9.0,75,0.00,,,0.00,0.000000,,2013-05-30 09:33:00,
2013-05-30 05:43:00,70.0,62.0,-100.00,South,179,5.0,9.0,75,0.00,,,0.00,0.000000,,2013-05-30 09:43:00,
2013-05-30 06:13:00,67.0,61.0,-100.00,SSE,156,2.0,7.0,82,0.00,,,0.00,0.000000,,2013-05-30 10:13:00,
2013-05-30 06:23:00,67.0,61.0,-100.00,SSE,156,2.0,7.0,82,0.00,,,0.00,0.000000,,2013-05-30 10:23:00,
2013-05-30 06:33:00,67.0,61.0,-100.00,SSE,156,2.0,7.0,82,0.00,,,0.00,0.000000,,2013-05-30 10:33:00,
2013-05-30 06:42:00,67.0,61.0,-100.00,SSE,156,2.0,7.0,82,0.00,,,0.00,0.000000,,2013-05-30 10:42:00,
2013-05-30 07:12:00,67.0,61.0,-100.00,SSE,164,2.0,5.0,82,0.00,,,0.00,3.000000,,2013-05-30 11:12:00,
2013-05-30 07:22:00,67.0,61.0,-100.00,SSE,164,2.0,5.0,82,0.00,,,0.00,3.000000,,2013-05-30 11:22:00,
2013-05-30 07:32:00,67.0,61.0,-100.00,SSE,164,2.0,5.0,82,0.00,,,0.00,3.000000,,2013-05-30 11:32:00,
2013-05-30 07:42:00,67.0,61.0,-100.00,SSE,164,2.0,5.0,82,0.00,,,0.00,3.000000,,2013-05-30 11:42:00,
2013-05-30 08:11:00,70.0,63.0,-100.00,SSE,155,3.0,6.0,79,0.00,,,0.00,81.000000,,2013-05-30 12:11:00,
2013-05-30 08:22:00,70.0,63.0,-100.00,SSE,155,3.0,6.0,79,0.00,,,0.00,81.000000,,2013-05-30 12:22:00,
2013-05-30 08:32:00,70.0,63.0,-100.00,SSE,155,3.0,6.0,79,0.00,,,0.00,81.000000,,2013-05-30 12:32:00,
2013-05-30 08:42:00,70.0,63.0,-100.00,SSE,155,3.0,6.0,79,0.00,,,0.00,81.000000,,2013-05-30 12:42:00,
2013-05-30 09:11:00,74.0,63.0,-100.00,South,172,7.0,12.0,69,0.00,,,0.00,294.000000,,2013-05-30 13:11:00,
2013-05-30 09:22:00,74.0,63.0,-100.00,South,172,7.0,12.0,69,0.00,,,0.00,294.000000,,2013-05-30 13:22:00,
2013-05-30 09:32:00,74.0,63.0,-100.00,South,172,7.0,12.0,69,0.00,,,0.00,294.000000,,2013-05-30 13:32:00,
2013-05-30 09:42:00,74.0,63.0,-100.00,South,172,7.0,12.0,69,0.00,,,0.00,294.000000,,2013-05-30 13:42:00,
2013-05-30 10:12:00,77.0,63.0,-100.00,South,180,9.0,16.0,63,0.00,,,0.00,461.000000,,2013-05-30 14:12:00,
2013-05-30 10:22:00,77.0,63.0,-100.00,South,180,9.0,16.0,63,0.00,,,0.00,461.000000,,2013-05-30 14:22:00,
2013-05-30 10:32:00,77.0,63.0,-100.00,South,180,9.0,16.0,63,0.00,,,0.00,461.000000,,2013-05-30 14:32:00,
2013-05-30 10:42:00,77.0,63.0,-100.00,South,180,9.0,16.0,63,0.00,,,0.00,461.000000,,2013-05-30 14:42:00,
2013-05-30 11:11:00,80.0,65.0,-100.00,South,176,8.0,18.0,60,0.00,,,0.00,682.000000,,2013-05-30 15:11:00,
2013-05-30 11:22:00,80.0,65.0,-100.00,South,176,8.0,18.0,60,0.00,,,0.00,682.000000,,2013-05-30 15:22:00,
2013-05-30 11:42:00,80.0,65.0,-100.00,South,176,8.0,18.0,60,0.00,,,0.00,682.000000,,2013-05-30 15:42:00,
2013-05-30 12:13:00,83.0,65.0,-100.00,South,172,7.0,19.0,55,0.00,,,0.00,821.000000,,2013-05-30 16:13:00,
2013-05-30 12:23:00,83.0,65.0,-100.00,South,172,7.0,19.0,55,0.00,,,0.00,821.000000,,2013-05-30 16:23:00,
2013-05-30 12:33:00,83.0,65.0,-100.00,South,172,7.0,19.0,55,0.00,,,0.00,821.000000,,2013-05-30 16:33:00,
2013-05-30 12:42:00,83.0,65.0,-100.00,South,172,7.0,19.0,55,0.00,,,0.00,821.000000,,2013-05-30 16:42:00,
2013-05-30 13:03:00,84.0,65.0,-100.00,South,169,9.0,18.0,53,0.00,,,0.00,964.000000,,2013-05-30 17:03:00,
2013-05-30 13:12:00,84.0,65.0,-100.00,South,169,9.0,18.0,53,0.00,,,0.00,964.000000,,2013-05-30 17:12:00,
2013-05-30 13:22:00,84.0,65.0,-100.00,South,169,9.0,18.0,53,0.00,,,0.00,964.000000,,2013-05-30 17:22:00,
2013-05-30 13:32:00,84.0,65.0,-100.00,South,169,9.0,18.0,53,0.00,,,0.00,964.000000,,2013-05-30 17:32:00,
2013-05-30 13:42:00,84.0,65.0,-100.00,South,169,9.0,18.0,53,0.00,,,0.00,964.000000,,2013-05-30 17:42:00,
2013-05-30 14:11:00,85.0,65.0,-100.00,South,170,10.0,20.0,51,0.00,,,0.00,1051.000000,,2013-05-30 18:11:00,
2013-05-30 14:22:00,85.0,65.0,-100.00,South,170,10.0,20.0,51,0.00,,,0.00,1051.000000,,2013-05-30 18:22:00,
2013-05-30 14:32:00,85.0,65.0,-100.00,South,170,10.0,20.0,51,0.00,,,0.00,1051.000000,,2013-05-30 18:32:00,
2013-05-30 14:43:00,85.0,65.0,-100.00,South,170,10.0,20.0,51,0.00,,,0.00,1051.000000,,2013-05-30 18:43:00,
2013-05-30 15:12:00,85.0,65.0,-100.00,South,173,8.0,20.0,52,0.00,,,0.00,994.000000,,2013-05-30 19:12:00,
2013-05-30 15:23:00,85.0,65.0,-100.00,South,173,8.0,20.0,52,0.00,,,0.00,994.000000,,2013-05-30 19:23:00,
2013-05-30 15:32:00,85.0,65.0,-100.00,South,173,8.0,20.0,52,0.00,,,0.00,994.000000,,2013-05-30 19:32:00,
2013-05-30 15:42:00,85.0,65.0,-100.00,South,173,8.0,20.0,52,0.00,,,0.00,994.000000,,2013-05-30 19:42:00,
2013-05-30 16:11:00,76.0,69.0,-100.00,SSW,193,5.0,18.0,80,0.02,,,0.02,527.000000,,2013-05-30 20:11:00,
2013-05-30 16:23:00,76.0,69.0,-100.00,SSW,193,5.0,18.0,80,0.02,,,0.02,527.000000,,2013-05-30 20:23:00,
2013-05-30 16:33:00,76.0,69.0,-100.00,SSW,193,5.0,18.0,80,0.02,,,0.02,527.000000,,2013-05-30 20:33:00,
2013-05-30 16:42:00,76.0,69.0,-100.00,SSW,193,5.0,18.0,80,0.02,,,0.02,527.000000,,2013-05-30 20:42:00,
2013-05-30 17:01:00,81.0,70.0,-100.00,SSE,161,5.0,10.0,69,0.00,,,0.02,462.000000,,2013-05-30 21:01:00,
2013-05-30 17:11:00,81.0,70.0,-100.00,SSE,161,5.0,10.0,69,0.00,,,0.02,462.000000,,2013-05-30 21:11:00,
2013-05-30 17:22:00,81.0,70.0,-100.00,SSE,161,5.0,10.0,69,0.00,,,0.02,462.000000,,2013-05-30 21:22:00,
2013-05-30 17:33:00,81.0,70.0,-100.00,SSE,161,5.0,10.0,69,0.00,,,0.02,462.000000,,2013-05-30 21:33:00,
2013-05-30 17:43:00,81.0,70.0,-100.00,SSE,161,5.0,10.0,69,0.00,,,0.02,462.000000,,2013-05-30 21:43:00,
2013-05-30 18:12:00,82.0,68.0,-100.00,SSE,158,8.0,14.0,62,0.00,,,0.02,472.000000,,2013-05-30 22:12:00,
2013-05-30 18:23:00,82.0,68.0,-100.00,SSE,158,8.0,14.0,62,0.00,,,0.02,472.000000,,2013-05-30 22:23:00,
2013-05-30 18:33:00,82.0,68.0,-100.00,SSE,158,8.0,14.0,62,0.00,,,0.02,472.000000,,2013-05-30 22:33:00,
2013-05-30 18:42:00,82.0,68.0,-100.00,SSE,158,8.0,14.0,62,0.00,,,0.02,472.000000,,2013-05-30 22:42:00,
2013-05-30 19:12:00,80.0,68.0,-100.00,SSE,165,4.0,13.0,68,0.00,,,0.02,178.000000,,2013-05-30 23:12:00,
2013-05-30 19:22:00,80.0,68.0,-100.00,SSE,165,4.0,13.0,68,0.00,,,0.02,178.000000,,2013-05-30 23:22:00,
2013-05-30 19:32:00,80.0,68.0,-100.00,SSE,165,4.0,13.0,68,0.00,,,0.02,178.000000,,2013-05-30 23:32:00,
2013-05-30 19:42:00,80.0,68.0,-100.00,SSE,165,4.0,13.0,68,0.00,,,0.02,178.000000,,2013-05-30 23:42:00,
2013-05-30 20:01:00,81.0,67.0,-100.00,South,172,4.0,11.0,62,0.00,,,0.02,146.000000,,2013-05-31 00:01:00,
2013-05-30 20:11:00,81.0,67.0,-100.00,South,172,4.0,11.0,62,0.00,,,0.02,146.000000,,2013-05-31 00:11:00,
2013-05-30 20:22:00,81.0,67.0,-100.00,South,172,4.0,11.0,62,0.00,,,0.02,146.000000,,2013-05-31 00:22:00,
2013-05-30 20:32:00,81.0,67.0,-100.00,South,172,4.0,11.0,62,0.00,,,0.02,146.000000,,2013-05-31 00:32:00,
2013-05-30 20:42:00,81.0,67.0,-100.00,South,172,4.0,11.0,62,0.00,,,0.02,146.000000,,2013-05-31 00:42:00,
2013-05-30 21:12:00,78.0,66.0,-100.00,SSE,154,4.0,8.0,66,0.00,,,0.02,60.000000,,2013-05-31 01:12:00,
2013-05-30 21:21:00,78.0,66.0,-100.00,SSE,154,4.0,8.0,66,0.00,,,0.02,60.000000,,2013-05-31 01:21:00,
2013-05-30 21:32:00,78.0,66.0,-100.00,SSE,154,4.0,8.0,66,0.00,,,0.02,60.000000,,2013-05-31 01:32:00,
2013-05-30 21:42:00,78.0,66.0,-100.00,SSE,154,4.0,8.0,66,0.00,,,0.02,60.000000,,2013-05-31 01:42:00,
2013-05-30 22:11:00,76.0,65.0,-100.00,SSE,162,5.0,8.0,69,0.00,,,0.02,2.000000,,2013-05-31 02:11:00,
2013-05-30 22:22:00,76.0,65.0,-100.00,SSE,162,5.0,8.0,69,0.00,,,0.02,2.000000,,2013-05-31 02:22:00,
2013-05-30 22:32:00,76.0,65.0,-100.00,SSE,162,5.0,8.0,69,0.00,,,0.02,2.000000,,2013-05-31 02:32:00,
2013-05-30 22:42:00,76.0,65.0,-100.00,SSE,162,5.0,8.0,69,0.00,,,0.02,2.000000,,2013-05-31 02:42:00,
2013-05-30 23:11:00,74.0,64.0,-100.00,SSE,152,5.0,8.0,71,0.00,,,0.02,0.000000,,2013-05-31 03:11:00,
2013-05-30 23:22:00,74.0,64.0,-100.00,SSE,152,5.0,8.0,71,0.00,,,0.02,0.000000,,2013-05-31 03:22:00,
2013-05-30 23:33:00,74.0,64.0,-100.00,SSE,152,5.0,8.0,71,0.00,,,0.02,0.000000,,2013-05-31 03:33:00,
2013-05-30 23:43:00,74.0,64.0,-100.00,SSE,152,5.0,8.0,71,0.00,,,0.02,0.000000,,2013-05-31 03:43:00,